createdAt,value
2018-02-15T00:00:22.286Z,13.60
2018-02-15T00:02:49.931Z,13.53
2018-02-15T00:05:18.318Z,12.83
2018-02-15T00:07:45.985Z,12.47
2018-02-15T00:10:14.405Z,13.60
2018-02-15T00:12:42.031Z,13.47
2018-02-15T00:15:09.654Z,13.57
2018-02-15T00:17:37.245Z,13.83
2018-02-15T00:20:04.859Z,13.40
2018-02-15T00:22:32.522Z,13.37
2018-02-15T00:25:00.164Z,15.00
2018-02-15T00:27:27.745Z,14.50
2018-02-15T00:29:55.373Z,12.70
2018-02-15T00:32:23.719Z,13.80
2018-02-15T00:34:51.320Z,14.07
2018-02-15T00:37:19.665Z,13.70
2018-02-15T00:39:47.344Z,13.93
2018-02-15T00:42:14.932Z,13.17
2018-02-15T00:44:42.529Z,13.60
2018-02-15T00:47:10.874Z,13.20
2018-02-15T00:49:38.475Z,13.63
2018-02-15T00:52:06.132Z,13.57
2018-02-15T00:54:33.826Z,13.30
2018-02-15T00:57:02.208Z,13.00
2018-02-15T00:59:29.823Z,11.30
2018-02-15T01:01:57.431Z,13.60
2018-02-15T01:04:25.092Z,12.07
2018-02-15T01:06:52.696Z,11.37
2018-02-15T01:09:20.297Z,13.47
2018-02-15T01:11:48.145Z,12.70
2018-02-15T01:14:15.738Z,13.80
2018-02-15T01:16:44.096Z,12.33
2018-02-15T01:19:11.674Z,12.23
2018-02-15T01:21:39.296Z,12.60
2018-02-15T01:24:06.951Z,12.00
2018-02-15T01:26:34.656Z,13.43
2018-02-15T01:29:02.251Z,12.47
2018-02-15T01:31:29.926Z,12.70
2018-02-15T01:33:57.605Z,12.87
2018-02-15T01:36:25.238Z,12.83
2018-02-15T01:38:52.894Z,11.60
2018-02-15T01:41:20.517Z,12.70
2018-02-15T01:43:48.171Z,13.73
2018-02-15T01:46:15.779Z,11.70
2018-02-15T01:48:43.449Z,14.00
2018-02-15T01:51:11.087Z,13.30
2018-02-15T01:53:38.749Z,12.20
2018-02-15T01:56:06.362Z,11.60
2018-02-15T01:58:33.942Z,11.47
2018-02-15T02:01:02.320Z,13.73
2018-02-15T02:03:29.923Z,12.13
2018-02-15T02:05:57.539Z,13.07
2018-02-15T02:08:25.168Z,12.40
2018-02-15T02:10:53.529Z,13.40
2018-02-15T02:13:21.190Z,13.60
2018-02-15T02:15:48.802Z,12.13
2018-02-15T02:18:16.400Z,13.40
2018-02-15T02:20:44.059Z,13.47
2018-02-15T02:23:11.701Z,12.93
2018-02-15T02:25:40.076Z,13.00
2018-02-15T02:28:07.718Z,12.70
2018-02-15T02:30:35.376Z,12.27
2018-02-15T02:33:02.986Z,13.57
2018-02-15T02:35:30.563Z,12.97
2018-02-15T02:37:58.148Z,13.83
2018-02-15T02:40:26.524Z,11.80
2018-02-15T02:42:54.115Z,12.77
2018-02-15T02:45:22.459Z,13.17
2018-02-15T02:47:50.068Z,12.47
2018-02-15T02:50:17.673Z,13.20
2018-02-15T02:52:45.267Z,12.80
2018-02-15T02:55:12.947Z,13.10
2018-02-15T02:57:40.579Z,13.97
2018-02-15T03:00:08.279Z,14.73
2018-02-15T03:02:35.936Z,13.50
2018-02-15T03:05:03.595Z,13.30
2018-02-15T03:07:31.220Z,12.97
2018-02-15T03:09:58.824Z,13.87
2018-02-15T03:12:27.173Z,13.97
2018-02-15T03:14:54.758Z,13.73
2018-02-15T03:17:22.371Z,14.00
2018-02-15T03:19:49.971Z,13.50
2018-02-15T03:22:17.634Z,13.20
2018-02-15T03:24:45.245Z,15.00
2018-02-15T03:27:12.905Z,14.33
2018-02-15T03:29:40.516Z,13.33
2018-02-15T03:32:08.960Z,13.37
2018-02-15T03:34:36.546Z,13.80
2018-02-15T03:37:04.122Z,14.00
2018-02-15T03:39:31.743Z,12.87
2018-02-15T03:41:59.348Z,13.37
2018-02-15T03:44:26.926Z,14.20
2018-02-15T03:46:54.540Z,15.20
2018-02-15T03:49:22.978Z,13.33
2018-02-15T03:51:50.658Z,14.30
2018-02-15T03:54:18.354Z,15.27
2018-02-15T03:56:46.058Z,14.10
2018-02-15T03:59:13.685Z,14.50
2018-02-15T04:01:41.291Z,16.30
2018-02-15T04:04:08.964Z,15.17
2018-02-15T04:06:37.442Z,16.47
2018-02-15T04:09:05.888Z,16.50
2018-02-15T04:11:33.476Z,17.03
2018-02-15T04:14:01.095Z,17.03
2018-02-15T04:16:29.560Z,17.40
2018-02-15T04:18:57.173Z,19.90
2018-02-15T04:21:24.826Z,17.10
2018-02-15T04:23:53.209Z,17.57
2018-02-15T04:26:20.791Z,17.00
2018-02-15T04:28:49.213Z,20.63
2018-02-15T04:31:16.918Z,18.30
2018-02-15T04:33:44.590Z,22.70
2018-02-15T04:36:12.184Z,21.90
2018-02-15T04:38:39.837Z,22.33
2018-02-15T04:41:07.418Z,22.47
2018-02-15T04:43:35.008Z,21.90
2018-02-15T04:46:03.410Z,24.13
2018-02-15T04:48:31.010Z,20.87
2018-02-15T04:50:58.591Z,24.33
2018-02-15T04:53:26.189Z,25.20
2018-02-15T04:55:53.829Z,28.30
2018-02-15T04:58:21.494Z,27.47
2018-02-15T05:00:49.115Z,29.90
2018-02-15T05:03:16.690Z,27.83
2018-02-15T05:05:44.282Z,28.10
2018-02-15T05:08:12.663Z,26.30
2018-02-15T05:10:41.016Z,29.47
2018-02-15T05:13:08.691Z,30.60
2018-02-15T05:15:36.315Z,28.57
2018-02-15T05:18:04.009Z,27.50
2018-02-15T05:20:31.636Z,32.00
2018-02-15T05:23:00.015Z,30.80
2018-02-15T05:25:27.603Z,31.13
2018-02-15T05:27:55.960Z,33.47
2018-02-15T05:30:23.635Z,32.57
2018-02-15T05:32:51.293Z,27.80
2018-02-15T05:35:19.219Z,32.37
2018-02-15T05:37:46.926Z,33.67
2018-02-15T05:40:14.594Z,34.57
2018-02-15T05:42:42.204Z,29.63
2018-02-15T05:45:09.825Z,32.13
2018-02-15T05:47:37.503Z,32.83
2018-02-15T05:50:05.127Z,32.87
2018-02-15T05:52:32.822Z,29.17
2018-02-15T05:55:00.430Z,31.43
2018-02-15T05:57:28.016Z,30.20
2018-02-15T05:59:55.636Z,30.67
2018-02-15T06:02:23.213Z,32.20
2018-02-15T06:04:50.792Z,30.30
2018-02-15T06:07:19.199Z,26.87
2018-02-15T06:09:46.861Z,31.90
2018-02-15T06:12:14.499Z,32.37
2018-02-15T06:14:42.135Z,24.87
2018-02-15T06:17:09.760Z,28.27
2018-02-15T06:19:37.405Z,27.57
2018-02-15T06:22:05.119Z,30.23
2018-02-15T06:24:32.766Z,26.10
2018-02-15T06:27:01.194Z,27.50
2018-02-15T06:29:28.899Z,27.60
2018-02-15T06:31:56.565Z,23.97
2018-02-15T06:34:24.375Z,25.33
2018-02-15T06:36:52.109Z,25.90
2018-02-15T06:39:19.744Z,24.03
2018-02-15T06:41:48.361Z,26.63
2018-02-15T06:44:16.016Z,19.07
2018-02-15T06:46:44.468Z,22.63
2018-02-15T06:49:12.192Z,26.13
2018-02-15T06:51:39.862Z,27.30
2018-02-15T06:54:07.549Z,26.30
2018-02-15T06:56:35.188Z,25.97
2018-02-15T06:59:03.617Z,23.70
2018-02-15T07:01:31.326Z,27.40
2018-02-15T07:03:59.018Z,23.50
2018-02-15T07:06:27.431Z,25.40
2018-02-15T07:08:55.878Z,26.47
2018-02-15T07:11:23.513Z,22.50
2018-02-15T07:13:51.146Z,25.50
2018-02-15T07:16:18.761Z,25.67
2018-02-15T07:18:47.139Z,25.67
2018-02-15T07:21:14.766Z,21.47
2018-02-15T07:23:42.382Z,24.73
2018-02-15T07:26:09.995Z,24.77
2018-02-15T07:28:37.643Z,20.90
2018-02-15T07:31:05.245Z,25.47
2018-02-15T07:33:32.932Z,26.40
2018-02-15T07:36:00.583Z,24.30
2018-02-15T07:38:28.206Z,22.30
2018-02-15T07:40:55.833Z,24.70
2018-02-15T07:43:23.502Z,26.80
2018-02-15T07:45:51.132Z,23.30
2018-02-15T07:48:18.819Z,26.00
2018-02-15T07:50:46.596Z,26.70
2018-02-15T07:53:14.304Z,25.37
2018-02-15T07:55:42.020Z,24.40
2018-02-15T07:58:09.706Z,22.90
2018-02-15T08:00:37.372Z,24.97
2018-02-15T08:03:05.021Z,26.70
2018-02-15T08:05:32.703Z,27.23
2018-02-15T08:08:00.361Z,26.00
2018-02-15T08:10:27.992Z,27.10
2018-02-15T08:12:55.714Z,25.47
2018-02-15T08:15:23.367Z,23.73
2018-02-15T08:17:51.007Z,25.30
2018-02-15T08:20:18.751Z,23.60
2018-02-15T08:22:46.471Z,24.60
2018-02-15T08:25:14.115Z,25.47
2018-02-15T08:27:41.781Z,24.30
2018-02-15T08:30:09.450Z,25.37
2018-02-15T08:32:37.097Z,25.57
2018-02-15T08:35:04.812Z,23.27
2018-02-15T08:37:32.459Z,23.37
2018-02-15T08:40:00.187Z,26.00
2018-02-15T08:42:27.843Z,26.23
2018-02-15T08:44:55.547Z,24.17
2018-02-15T08:47:23.211Z,23.10
2018-02-15T08:49:50.871Z,24.70
2018-02-15T08:52:18.560Z,26.30
2018-02-15T08:54:46.281Z,24.80
2018-02-15T08:57:14.024Z,24.13
2018-02-15T08:59:41.724Z,22.80
2018-02-15T09:02:09.409Z,24.90
2018-02-15T09:04:37.865Z,24.03
2018-02-15T09:07:05.597Z,26.30
2018-02-15T09:09:33.291Z,24.70
2018-02-15T09:12:01.022Z,24.97
2018-02-15T09:14:29.500Z,26.10
2018-02-15T09:16:57.182Z,25.00
2018-02-15T09:19:24.879Z,23.50
2018-02-15T09:21:52.572Z,22.93
2018-02-15T09:24:20.248Z,23.87
2018-02-15T09:26:47.993Z,25.47
2018-02-15T09:29:15.716Z,24.90
2018-02-15T09:31:43.493Z,24.87
2018-02-15T09:34:14.773Z,25.77
2018-02-15T09:36:43.845Z,22.53
2018-02-15T09:39:24.026Z,23.87
2018-02-15T09:41:51.855Z,23.27
2018-02-15T09:44:19.529Z,23.47
2018-02-15T09:46:47.263Z,23.57
2018-02-15T09:49:14.909Z,25.07
2018-02-15T09:51:42.637Z,27.17
2018-02-15T09:54:10.315Z,25.47
2018-02-15T09:56:38.060Z,22.83
2018-02-15T09:59:05.790Z,24.00
2018-02-15T10:01:33.437Z,25.00
2018-02-15T10:04:01.118Z,24.10
2018-02-15T10:06:28.859Z,22.33
2018-02-15T10:08:56.515Z,23.00
2018-02-15T10:11:24.151Z,22.53
2018-02-15T10:13:51.876Z,22.23
2018-02-15T10:16:19.554Z,24.17
2018-02-15T10:18:47.274Z,24.80
2018-02-15T10:21:15.056Z,21.30
2018-02-15T10:23:42.757Z,23.87
2018-02-15T10:26:10.445Z,23.17
2018-02-15T10:28:38.129Z,21.60
2018-02-15T10:31:05.779Z,24.63
2018-02-15T10:33:33.417Z,24.07
2018-02-15T10:36:01.065Z,24.10
2018-02-15T10:38:28.714Z,23.73
2018-02-15T10:40:56.383Z,25.43
2018-02-15T10:43:24.143Z,23.30
2018-02-15T10:45:51.823Z,25.30
2018-02-15T10:48:19.545Z,25.80
2018-02-15T10:50:47.291Z,22.10
2018-02-15T10:53:15.711Z,23.00
2018-02-15T10:55:43.367Z,21.57
2018-02-15T10:58:11.037Z,22.67
2018-02-15T11:00:44.348Z,21.77
2018-02-15T11:03:17.729Z,22.10
2018-02-15T11:05:45.430Z,23.03
2018-02-15T11:08:13.132Z,20.93
2018-02-15T11:10:40.815Z,21.27
2018-02-15T11:13:08.547Z,21.10
2018-02-15T11:15:36.296Z,21.17
2018-02-15T11:18:04.060Z,21.17
2018-02-15T11:20:31.850Z,22.07
2018-02-15T11:22:59.491Z,21.70
2018-02-15T11:25:27.233Z,19.63
2018-02-15T11:27:54.863Z,22.40
2018-02-15T11:30:22.540Z,21.30
2018-02-15T11:32:50.256Z,21.90
2018-02-15T11:35:17.912Z,22.83
2018-02-15T11:37:45.636Z,21.60
2018-02-15T11:40:13.421Z,22.27
2018-02-15T11:42:41.092Z,23.00
2018-02-15T11:45:08.787Z,21.53
2018-02-15T11:47:36.464Z,22.47
2018-02-15T11:50:04.259Z,21.93
2018-02-15T11:52:33.889Z,19.63
2018-02-15T11:55:01.642Z,21.40
2018-02-15T11:57:29.343Z,21.43
2018-02-15T11:59:57.079Z,22.10
2018-02-15T12:02:24.823Z,20.77
2018-02-15T12:04:52.541Z,20.47
2018-02-15T12:07:20.230Z,20.00
2018-02-15T12:09:47.972Z,19.80
2018-02-15T12:12:15.701Z,19.00
2018-02-15T12:14:43.410Z,20.00
2018-02-15T12:17:11.111Z,19.40
2018-02-15T12:19:38.838Z,20.03
2018-02-15T12:22:06.597Z,19.47
2018-02-15T12:24:34.413Z,18.57
2018-02-15T12:27:02.220Z,18.20
2018-02-15T12:29:29.953Z,17.97
2018-02-15T12:31:57.654Z,19.90
2018-02-15T12:34:25.346Z,19.40
2018-02-15T12:36:53.012Z,19.13
2018-02-15T12:39:20.686Z,17.93
2018-02-15T12:41:48.390Z,18.80
2018-02-15T12:44:16.046Z,19.03
2018-02-15T12:46:43.775Z,18.00
2018-02-15T12:49:11.451Z,19.20
2018-02-15T12:51:39.117Z,17.90
2018-02-15T12:54:06.799Z,18.10
2018-02-15T12:56:34.471Z,16.73
2018-02-15T12:59:02.253Z,18.80
2018-02-15T13:01:29.954Z,17.67
2018-02-15T13:03:57.611Z,19.27
2018-02-15T13:06:25.387Z,17.30
2018-02-15T13:08:53.086Z,18.80
2018-02-15T13:11:20.764Z,18.30
2018-02-15T13:13:48.415Z,15.90
2018-02-15T13:16:27.779Z,17.43
2018-02-15T13:19:07.137Z,17.70
2018-02-15T13:21:35.939Z,17.20
2018-02-15T13:24:03.715Z,15.90
2018-02-15T13:26:32.192Z,16.27
2018-02-15T13:28:59.969Z,17.00
2018-02-15T13:31:27.684Z,16.40
2018-02-15T13:33:55.422Z,16.70
2018-02-15T13:36:23.145Z,16.80
2018-02-15T13:38:50.973Z,18.70
2018-02-15T13:41:18.664Z,17.63
2018-02-15T13:43:46.358Z,18.10
2018-02-15T13:46:14.019Z,16.67
2018-02-15T13:48:41.664Z,17.90
2018-02-15T13:51:09.419Z,17.70
2018-02-15T13:53:37.183Z,17.10
2018-02-15T13:56:04.962Z,18.27
2018-02-15T13:58:32.660Z,17.27
2018-02-15T14:01:00.367Z,19.10
2018-02-15T14:03:28.134Z,18.63
2018-02-15T14:05:56.598Z,19.07
2018-02-15T14:08:24.278Z,18.37
2018-02-15T14:10:51.974Z,19.77
2018-02-15T14:13:19.714Z,20.47
2018-02-15T14:15:47.352Z,20.10
2018-02-15T14:18:15.092Z,19.20
2018-02-15T14:20:42.823Z,20.07
2018-02-15T14:23:10.493Z,22.10
2018-02-15T14:25:38.236Z,19.77
2018-02-15T14:28:05.895Z,20.63
2018-02-15T14:30:33.600Z,19.77
2018-02-15T14:33:01.355Z,19.37
2018-02-15T14:35:29.176Z,19.43
2018-02-15T14:37:56.871Z,20.37
2018-02-15T14:40:24.586Z,18.70
2018-02-15T14:42:52.263Z,19.40
2018-02-15T14:45:19.949Z,19.80
2018-02-15T14:47:47.592Z,20.20
2018-02-15T14:50:15.294Z,17.90
2018-02-15T14:52:42.936Z,18.90
2018-02-15T14:55:10.652Z,19.20
2018-02-15T14:57:38.337Z,19.50
2018-02-15T15:00:06.014Z,18.97
2018-02-15T15:02:33.774Z,19.10
2018-02-15T15:05:01.476Z,18.20
2018-02-15T15:07:29.118Z,18.90
2018-02-15T15:09:56.769Z,20.27
2018-02-15T15:12:24.436Z,18.63
2018-02-15T15:14:52.136Z,17.57
2018-02-15T15:17:19.804Z,19.20
2018-02-15T15:19:47.488Z,20.27
2018-02-15T15:22:15.212Z,19.33
2018-02-15T15:24:42.850Z,19.13
2018-02-15T15:27:10.577Z,19.87
2018-02-15T15:29:38.256Z,17.93
2018-02-15T15:32:05.989Z,18.30
2018-02-15T15:34:33.712Z,19.33
2018-02-15T15:37:02.181Z,20.47
2018-02-15T15:39:29.854Z,19.27
2018-02-15T15:41:57.563Z,20.37
2018-02-15T15:44:25.273Z,19.43
2018-02-15T15:46:52.978Z,19.37
2018-02-15T15:49:20.699Z,20.03
2018-02-15T15:51:48.361Z,20.17
2018-02-15T15:54:16.126Z,19.90
2018-02-15T15:56:43.914Z,19.20
2018-02-15T15:59:11.571Z,18.67
2018-02-15T16:01:39.351Z,17.57
2018-02-15T16:04:07.015Z,16.27
2018-02-15T16:06:34.748Z,15.47
2018-02-15T16:09:03.156Z,15.93
2018-02-15T16:11:30.931Z,17.67
2018-02-15T16:13:58.645Z,29.70
2018-02-15T16:16:26.352Z,14.60
2018-02-15T16:18:54.059Z,12.20
2018-02-15T16:21:21.715Z,12.43
2018-02-15T16:23:49.470Z,11.60
2018-02-15T16:26:17.196Z,13.43
2018-02-15T16:28:44.870Z,26.57
2018-02-15T16:31:12.570Z,15.80
2018-02-15T16:33:40.336Z,11.53
2018-02-15T16:36:08.064Z,10.03
2018-02-15T16:38:35.747Z,8.90
2018-02-15T16:41:03.785Z,7.93
2018-02-15T16:43:31.457Z,7.73
2018-02-15T16:45:59.214Z,7.90
2018-02-15T16:48:27.292Z,9.93
2018-02-15T16:50:54.922Z,13.40
2018-02-15T16:53:22.701Z,15.50
2018-02-15T16:55:50.427Z,16.00
2018-02-15T16:58:18.142Z,17.77
2018-02-15T17:00:45.882Z,16.70
2018-02-15T17:03:13.682Z,16.47
2018-02-15T17:05:41.382Z,18.03
2018-02-15T17:08:09.165Z,17.70
2018-02-15T17:10:36.817Z,16.90
2018-02-15T17:13:04.539Z,18.60
2018-02-15T17:15:32.343Z,17.23
2018-02-15T17:18:00.247Z,16.97
2018-02-15T17:20:27.963Z,18.63
2018-02-15T17:22:55.685Z,19.20
2018-02-15T17:25:23.403Z,21.80
2018-02-15T17:27:51.106Z,22.53
2018-02-15T17:30:18.841Z,23.60
2018-02-15T17:32:46.600Z,23.00
2018-02-15T17:35:14.295Z,22.47
2018-02-15T17:37:41.995Z,19.70
2018-02-15T17:40:09.739Z,21.40
2018-02-15T17:42:37.430Z,18.47
2018-02-15T17:45:05.185Z,16.57
2018-02-15T17:47:33.002Z,15.53
2018-02-15T17:50:00.930Z,12.63
2018-02-15T17:52:28.700Z,14.53
2018-02-15T17:54:56.512Z,15.60
2018-02-15T17:57:24.638Z,12.77
2018-02-15T17:59:52.542Z,16.10
2018-02-15T18:02:21.081Z,14.97
2018-02-15T18:04:48.803Z,15.33
2018-02-15T18:07:16.547Z,14.70
2018-02-15T18:09:44.337Z,16.03
2018-02-15T18:12:12.035Z,16.37
2018-02-15T18:14:39.731Z,15.50
2018-02-15T18:17:07.446Z,17.20
2018-02-15T18:19:35.830Z,15.50
2018-02-15T18:22:03.536Z,15.97
2018-02-15T18:24:31.228Z,14.63
2018-02-15T18:40:57.710Z,13.97
2018-02-15T18:51:00.921Z,17.30
2018-02-15T19:01:04.262Z,15.37
2018-02-15T19:11:07.468Z,15.60
2018-02-15T19:21:11.887Z,19.00
2018-02-15T19:31:15.102Z,18.13
2018-02-15T19:41:17.839Z,19.87
2018-02-15T19:51:20.647Z,18.93
2018-02-15T20:01:23.334Z,20.03
2018-02-15T20:11:26.600Z,18.57
2018-02-15T20:21:30.412Z,22.80
2018-02-15T20:31:34.416Z,21.87
2018-02-15T20:41:37.596Z,17.67
2018-02-15T20:51:46.752Z,18.30
2018-02-15T21:01:49.901Z,13.50
2018-02-15T21:11:52.573Z,12.00
2018-02-15T21:21:56.021Z,14.10
2018-02-15T21:31:58.700Z,15.00
2018-02-15T21:42:02.173Z,13.70
2018-02-15T21:52:04.967Z,15.50
2018-02-15T22:02:07.628Z,16.30
2018-02-15T22:12:10.336Z,17.63
2018-02-15T22:22:13.757Z,18.43
2018-02-15T22:32:17.144Z,18.80
2018-02-15T22:42:20.538Z,18.33
2018-02-15T22:52:23.236Z,19.80
2018-02-15T23:02:25.873Z,19.40
2018-02-15T23:12:29.298Z,22.73
2018-02-15T23:22:31.930Z,21.37
2018-02-15T23:32:34.612Z,21.37
2018-02-15T23:42:37.309Z,24.93
2018-02-15T23:52:39.991Z,27.37
